Novomar — 5BCT2 — position and weather

sailwx.info

Track history (hours):
 
Tides and Currents Weather Stations Pressure Air Temp Water Temp Dewpoint Dewpoint Depression Visibility Wind Speed Wind Dir Waves Ship Positions

Novomar

Last reported at 2014-Jul-24 15:26 UTC. Time now 2014-Jul-24 17:47 UTC.
Position N 54°39' W 005°52'.

Length 89 m; draft 3.2 m.

Type: Cargo ship. MMSI: 210974000.

Date/timePositionNaut miles runAvg speedWind from/ knotsBaromVisibWave heightAir tempDewpointWater temp
2014-Jul-24 15:26N 54°39' W 005°52'8 9.2
2014-Jul-24 14:33N 54°43' W 005°40'7 7.0
2014-Jul-24 13:33N 54°42' W 005°28'9 8.8
2014-Jul-24 12:33N 54°34' W 005°22'1110.7
2014-Jul-24 11:33N 54°24' W 005°18'1110.9
2014-Jul-24 10:33N 54°13' W 005°21'  
2014-Jul-20 11:09N 50°43' W 005°17'4 7.1
2014-Jul-20 10:33N 50°40' W 005°22'157 4.3
2014-Jul-18 22:18N 50°23' W 001°16'32 8.2
2014-Jul-18 18:26N 50°29' W 000°27'8 8.3
2014-Jul-18 17:29N 50°30' W 000°15'8 7.8
2014-Jul-18 16:31N 50°32' W 000°03'7 7.1
2014-Jul-18 15:33N 50°33' E 000°07'6 6.0
2014-Jul-18 14:32N 50°35' E 000°16'5 5.0
2014-Jul-18 13:33N 50°37' E 000°24'5 4.9
2014-Jul-18 12:33N 50°38' E 000°31'6 5.8
2014-Jul-18 11:33N 50°41' E 000°39'7 7.4
2014-Jul-18 10:33N 50°45' E 000°49'11 8.8
2014-Jul-18 09:20N 50°51' E 001°02'15 7.8
2014-Jul-18 07:22N 51°01' E 001°22'5 6.3
2014-Jul-18 06:33N 51°04' E 001°28'5 5.5
2014-Jul-18 05:33N 51°08' E 001°35'5 4.9
2014-Jul-18 04:33N 51°11' E 001°41'6 5.7
2014-Jul-18 03:33N 51°15' E 001°47'7 6.9
2014-Jul-18 02:33N 51°20' E 001°54'7 7.3
2014-Jul-18 01:33N 51°25' E 002°03'8 7.8
2014-Jul-18 00:33N 51°21' E 002°14'9 8.5
2014-Jul-17 23:33N 51°23' E 002°28'9 8.1
2014-Jul-17 22:25N 51°23' E 002°43'1010.6
2014-Jul-17 21:29N 51°24' E 002°59'1111.5
2014-Jul-17 20:32N 51°25' E 003°16'1212.2
2014-Jul-17 19:33N 51°26' E 003°35'5 5.0
2014-Jul-17 18:31N 51°27' E 003°43'0 0.0
2014-Jul-17 17:31N 51°27' E 003°43'0 0.0
2014-Jul-17 16:31N 51°27' E 003°43'0 0.0
2014-Jul-17 15:31N 51°27' E 003°43'0 0.0
2014-Jul-17 14:31N 51°27' E 003°43'0 0.0
2014-Jul-17 13:31N 51°27' E 003°43'0 0.0
2014-Jul-17 12:31N 51°27' E 003°43'0 0.0
2014-Jul-17 11:31N 51°27' E 003°43'0 0.0
2014-Jul-17 10:31N 51°27' E 003°43'0 0.0
2014-Jul-17 09:31N 51°27' E 003°43'0 0.0
2014-Jul-17 08:25N 51°27' E 003°43'0 0.0
2014-Jul-17 07:28N 51°27' E 003°43'0 0.0
2014-Jul-17 06:31N 51°27' E 003°43'0 0.0
2014-Jul-17 05:31N 51°27' E 003°43'0 0.0
2014-Jul-17 04:31N 51°27' E 003°43'0 0.0
2014-Jul-17 03:31N 51°27' E 003°43'0 0.0
2014-Jul-17 02:31N 51°27' E 003°43'0 0.0
2014-Jul-17 01:31N 51°27' E 003°43'0 0.0
2014-Jul-17 00:31N 51°27' E 003°43'0 0.0
2014-Jul-16 23:31N 51°27' E 003°43'0 0.1
2014-Jul-16 22:31N 51°27' E 003°43'1 1.1
2014-Jul-16 21:31N 51°28' E 003°41'0 0.0
2014-Jul-16 20:22N 51°28' E 003°41'0 0.0
2014-Jul-16 19:31N 51°28' E 003°41'0 0.0
2014-Jul-16 18:31N 51°28' E 003°41'0 0.0
2014-Jul-16 17:25N 51°28' E 003°41'0 0.0
2014-Jul-16 16:31N 51°28' E 003°41'0 0.0
2014-Jul-16 15:28N 51°28' E 003°41'0 0.0
2014-Jul-16 14:25N 51°28' E 003°41'0 0.0
2014-Jul-16 13:28N 51°28' E 003°41'0 0.0
2014-Jul-16 12:28N 51°28' E 003°41'0 0.0
2014-Jul-16 11:19N 51°28' E 003°41'0 0.0
2014-Jul-16 10:31N 51°28' E 003°41'0 0.4
2014-Jul-16 09:33N 51°27' E 003°41'6 6.0
2014-Jul-16 08:33N 51°27' E 003°31'9 8.5
2014-Jul-16 07:28N 51°35' E 003°23'16 8.0
2014-Jul-16 05:31N 51°50' E 003°17'98 9.8
2014-Jul-15 19:33N 53°18' E 004°29'8 8.4
2014-Jul-15 18:33N 53°25' E 004°36'20 9.6
2014-Jul-15 16:27N 53°34' E 005°06'1111.3
2014-Jul-15 15:31N 53°37' E 005°23'1111.0
2014-Jul-15 14:33N 53°41' E 005°40'68 9.2
2014-Jul-15 07:09N 53°59' E 007°31'610.4
2014-Jul-15 06:33N 54°01' E 007°41'1110.7
2014-Jul-15 05:33N 54°01' E 007°59'1110.8
2014-Jul-15 04:30N 53°60' E 008°19'1112.2
2014-Jul-15 03:33N 53°57' E 008°38'9 9.3
2014-Jul-15 02:33N 53°51' E 008°48'8 7.7
2014-Jul-15 01:33N 53°52' E 009°01'5 4.9
2014-Jul-15 00:33N 53°54' E 009°09'4 3.4
2014-Jul-14 23:31N 53°56' E 009°13'9 9.0
2014-Jul-14 22:33N 54°04' E 009°19'  
Track history (hours):
 
Tides and Currents Weather Stations Pressure Air Temp Water Temp Dewpoint Dewpoint Depression Visibility Wind Speed Wind Dir Waves Ship Positions

Novomar

Last reported at 2014-Jul-24 15:26 UTC. Time now 2014-Jul-24 17:47 UTC.
Position N 54°39' W 005°52'.

Length 89 m; draft 3.2 m.

Type: Cargo ship. MMSI: 210974000.

Date/timePositionNaut miles runAvg speedWind from/ knotsBaromVisibWave heightAir tempDewpointWater temp
2014-Jul-24 15:26N 54°39' W 005°52'8 9.2
2014-Jul-24 14:33N 54°43' W 005°40'7 7.0
2014-Jul-24 13:33N 54°42' W 005°28'9 8.8
2014-Jul-24 12:33N 54°34' W 005°22'1110.7
2014-Jul-24 11:33N 54°24' W 005°18'1110.9
2014-Jul-24 10:33N 54°13' W 005°21'  
2014-Jul-20 11:09N 50°43' W 005°17'4 7.1
2014-Jul-20 10:33N 50°40' W 005°22'157 4.3
2014-Jul-18 22:18N 50°23' W 001°16'32 8.2
2014-Jul-18 18:26N 50°29' W 000°27'8 8.3
2014-Jul-18 17:29N 50°30' W 000°15'8 7.8
2014-Jul-18 16:31N 50°32' W 000°03'7 7.1
2014-Jul-18 15:33N 50°33' E 000°07'6 6.0
2014-Jul-18 14:32N 50°35' E 000°16'5 5.0
2014-Jul-18 13:33N 50°37' E 000°24'5 4.9
2014-Jul-18 12:33N 50°38' E 000°31'6 5.8
2014-Jul-18 11:33N 50°41' E 000°39'7 7.4
2014-Jul-18 10:33N 50°45' E 000°49'11 8.8
2014-Jul-18 09:20N 50°51' E 001°02'15 7.8
2014-Jul-18 07:22N 51°01' E 001°22'5 6.3
2014-Jul-18 06:33N 51°04' E 001°28'5 5.5
2014-Jul-18 05:33N 51°08' E 001°35'5 4.9
2014-Jul-18 04:33N 51°11' E 001°41'6 5.7
2014-Jul-18 03:33N 51°15' E 001°47'7 6.9
2014-Jul-18 02:33N 51°20' E 001°54'7 7.3
2014-Jul-18 01:33N 51°25' E 002°03'8 7.8
2014-Jul-18 00:33N 51°21' E 002°14'9 8.5
2014-Jul-17 23:33N 51°23' E 002°28'9 8.1
2014-Jul-17 22:25N 51°23' E 002°43'1010.6
2014-Jul-17 21:29N 51°24' E 002°59'1111.5
2014-Jul-17 20:32N 51°25' E 003°16'1212.2
2014-Jul-17 19:33N 51°26' E 003°35'5 5.0
2014-Jul-17 18:31N 51°27' E 003°43'0 0.0
2014-Jul-17 17:31N 51°27' E 003°43'0 0.0
2014-Jul-17 16:31N 51°27' E 003°43'0 0.0
2014-Jul-17 15:31N 51°27' E 003°43'0 0.0
2014-Jul-17 14:31N 51°27' E 003°43'0 0.0
2014-Jul-17 13:31N 51°27' E 003°43'0 0.0
2014-Jul-17 12:31N 51°27' E 003°43'0 0.0
2014-Jul-17 11:31N 51°27' E 003°43'0 0.0
2014-Jul-17 10:31N 51°27' E 003°43'0 0.0
2014-Jul-17 09:31N 51°27' E 003°43'0 0.0
2014-Jul-17 08:25N 51°27' E 003°43'0 0.0
2014-Jul-17 07:28N 51°27' E 003°43'0 0.0
2014-Jul-17 06:31N 51°27' E 003°43'0 0.0
2014-Jul-17 05:31N 51°27' E 003°43'0 0.0
2014-Jul-17 04:31N 51°27' E 003°43'0 0.0
2014-Jul-17 03:31N 51°27' E 003°43'0 0.0
2014-Jul-17 02:31N 51°27' E 003°43'0 0.0
2014-Jul-17 01:31N 51°27' E 003°43'0 0.0
2014-Jul-17 00:31N 51°27' E 003°43'0 0.0
2014-Jul-16 23:31N 51°27' E 003°43'0 0.1
2014-Jul-16 22:31N 51°27' E 003°43'1 1.1
2014-Jul-16 21:31N 51°28' E 003°41'0 0.0
2014-Jul-16 20:22N 51°28' E 003°41'0 0.0
2014-Jul-16 19:31N 51°28' E 003°41'0 0.0
2014-Jul-16 18:31N 51°28' E 003°41'0 0.0
2014-Jul-16 17:25N 51°28' E 003°41'0 0.0
2014-Jul-16 16:31N 51°28' E 003°41'0 0.0
2014-Jul-16 15:28N 51°28' E 003°41'0 0.0
2014-Jul-16 14:25N 51°28' E 003°41'0 0.0
2014-Jul-16 13:28N 51°28' E 003°41'0 0.0
2014-Jul-16 12:28N 51°28' E 003°41'0 0.0
2014-Jul-16 11:19N 51°28' E 003°41'0 0.0
2014-Jul-16 10:31N 51°28' E 003°41'0 0.4
2014-Jul-16 09:33N 51°27' E 003°41'6 6.0
2014-Jul-16 08:33N 51°27' E 003°31'9 8.5
2014-Jul-16 07:28N 51°35' E 003°23'16 8.0
2014-Jul-16 05:31N 51°50' E 003°17'98 9.8
2014-Jul-15 19:33N 53°18' E 004°29'8 8.4
2014-Jul-15 18:33N 53°25' E 004°36'20 9.6
2014-Jul-15 16:27N 53°34' E 005°06'1111.3
2014-Jul-15 15:31N 53°37' E 005°23'1111.0
2014-Jul-15 14:33N 53°41' E 005°40'68 9.2
2014-Jul-15 07:09N 53°59' E 007°31'610.4
2014-Jul-15 06:33N 54°01' E 007°41'1110.7
2014-Jul-15 05:33N 54°01' E 007°59'1110.8
2014-Jul-15 04:30N 53°60' E 008°19'1112.2
2014-Jul-15 03:33N 53°57' E 008°38'9 9.3
2014-Jul-15 02:33N 53°51' E 008°48'8 7.7
2014-Jul-15 01:33N 53°52' E 009°01'5 4.9
2014-Jul-15 00:33N 53°54' E 009°09'4 3.4
2014-Jul-14 23:31N 53°56' E 009°13'9 9.0
2014-Jul-14 22:33N 54°04' E 009°19'  

Dump ship's entire track history